createdAt,value
2022-12-19T00:00:01.860Z,722
2022-12-19T00:15:05.067Z,729
2022-12-19T00:30:04.816Z,736
2022-12-19T00:45:03.139Z,737
2022-12-19T01:00:04.595Z,732
2022-12-19T01:15:01.952Z,726
2022-12-19T01:30:05.146Z,716
2022-12-19T01:45:04.872Z,711
2022-12-19T02:00:01.583Z,711
2022-12-19T02:30:03.916Z,711
2022-12-19T02:45:02.836Z,708
2022-12-19T03:00:04.922Z,708
2022-12-19T03:15:05.657Z,706
2022-12-19T03:30:04.850Z,702
2022-12-19T03:45:06.184Z,703
2022-12-19T04:00:02.765Z,703
2022-12-19T04:15:03.729Z,705
2022-12-19T04:30:05.683Z,707
2022-12-19T04:45:03.798Z,708
2022-12-19T05:00:01.755Z,706
2022-12-19T05:15:04.091Z,703
2022-12-19T05:30:04.860Z,699
2022-12-19T05:45:04.159Z,704
2022-12-19T06:15:04.785Z,760
2022-12-19T06:30:05.110Z,794
2022-12-19T06:45:05.823Z,848
2022-12-19T07:00:04.050Z,876
2022-12-19T07:15:02.969Z,881
2022-12-19T07:30:05.022Z,862
2022-12-19T07:45:01.762Z,843
2022-12-19T08:00:06.031Z,799
2022-12-19T08:15:03.578Z,763
2022-12-19T08:30:06.080Z,733
2022-12-19T08:45:02.691Z,709
2022-12-19T09:00:04.794Z,685
2022-12-19T09:15:05.093Z,665
2022-12-19T09:30:02.851Z,651
2022-12-19T09:45:05.936Z,645
2022-12-19T10:00:05.046Z,637
2022-12-19T10:15:04.812Z,633
2022-12-19T10:30:06.146Z,643
2022-12-19T10:45:02.737Z,653
2022-12-19T11:00:04.777Z,651
2022-12-19T11:15:05.093Z,642
2022-12-19T11:30:01.865Z,631
2022-12-19T12:00:01.701Z,613
2022-12-19T12:15:05.898Z,626
2022-12-19T12:30:05.289Z,661
2022-12-19T12:45:02.804Z,707
2022-12-19T13:00:05.921Z,757
2022-12-19T13:15:03.095Z,802
2022-12-19T13:30:03.157Z,845
2022-12-19T13:45:05.683Z,879
2022-12-19T14:00:04.806Z,906
2022-12-19T14:15:02.149Z,935
2022-12-19T14:30:04.839Z,943
2022-12-19T14:45:02.612Z,952
2022-12-19T15:15:04.680Z,1001
2022-12-19T15:30:02.117Z,1036
2022-12-19T15:45:03.814Z,1055
2022-12-19T16:00:04.741Z,1075
2022-12-19T16:15:02.039Z,1090
2022-12-19T16:30:03.736Z,1092
2022-12-19T16:45:03.681Z,1088
2022-12-19T17:00:02.591Z,1100
2022-12-19T17:15:01.707Z,1116
2022-12-19T17:30:06.127Z,1132
2022-12-19T17:45:05.627Z,1145
2022-12-19T18:00:01.788Z,1161
2022-12-19T18:15:02.153Z,1186
2022-12-19T18:30:04.776Z,1202
2022-12-19T18:45:02.141Z,1204
2022-12-19T19:00:01.847Z,1201
2022-12-19T19:15:02.084Z,1192
2022-12-19T19:45:03.117Z,1132
2022-12-19T20:00:01.598Z,1108
2022-12-19T20:15:03.835Z,1086
2022-12-19T20:30:01.739Z,1069
2022-12-19T20:45:05.999Z,1061
2022-12-19T21:00:03.160Z,1061
2022-12-19T21:30:04.741Z,1061
2022-12-19T21:45:06.077Z,1062
2022-12-19T22:00:03.619Z,1057
2022-12-19T22:15:05.204Z,1046
2022-12-19T22:30:02.775Z,1034
2022-12-19T22:45:04.832Z,1025
2022-12-19T23:00:04.142Z,1015
2022-12-19T23:15:04.940Z,1010
2022-12-19T23:30:02.706Z,1006
2022-12-19T23:45:03.684Z,1002
